sensor_id;sensor_type;location;lat;lon;timestamp;P1;durP1;ratioP1;P2;durP2;ratioP2
15086;SDS011;7642;48.478;8.952;2022-07-29T00:01:55;5.85;;;4.18;;
15086;SDS011;7642;48.478;8.952;2022-07-29T00:04:21;7.80;;;4.72;;
15086;SDS011;7642;48.478;8.952;2022-07-29T00:06:46;4.80;;;4.30;;
15086;SDS011;7642;48.478;8.952;2022-07-29T00:09:12;4.20;;;3.80;;
15086;SDS011;7642;48.478;8.952;2022-07-29T00:11:37;5.57;;;4.13;;
15086;SDS011;7642;48.478;8.952;2022-07-29T00:14:03;5.32;;;4.05;;
15086;SDS011;7642;48.478;8.952;2022-07-29T00:16:29;4.72;;;3.97;;
15086;SDS011;7642;48.478;8.952;2022-07-29T00:18:54;7.00;;;4.20;;
15086;SDS011;7642;48.478;8.952;2022-07-29T00:21:20;5.85;;;4.07;;
15086;SDS011;7642;48.478;8.952;2022-07-29T00:23:45;3.95;;;3.58;;
15086;SDS011;7642;48.478;8.952;2022-07-29T00:26:11;4.97;;;3.47;;
15086;SDS011;7642;48.478;8.952;2022-07-29T00:28:36;3.60;;;2.92;;
15086;SDS011;7642;48.478;8.952;2022-07-29T00:31:02;3.88;;;3.40;;
15086;SDS011;7642;48.478;8.952;2022-07-29T00:33:28;3.83;;;3.35;;
15086;SDS011;7642;48.478;8.952;2022-07-29T00:35:54;4.00;;;3.42;;
15086;SDS011;7642;48.478;8.952;2022-07-29T00:38:19;4.28;;;3.70;;
15086;SDS011;7642;48.478;8.952;2022-07-29T00:40:45;5.18;;;3.08;;
15086;SDS011;7642;48.478;8.952;2022-07-29T00:43:12;4.80;;;3.45;;
15086;SDS011;7642;48.478;8.952;2022-07-29T00:45:39;3.50;;;2.97;;
15086;SDS011;7642;48.478;8.952;2022-07-29T00:48:05;4.72;;;3.35;;
15086;SDS011;7642;48.478;8.952;2022-07-29T00:50:31;4.35;;;2.85;;
15086;SDS011;7642;48.478;8.952;2022-07-29T00:52:57;5.05;;;3.03;;
15086;SDS011;7642;48.478;8.952;2022-07-29T00:55:23;2.95;;;2.53;;
15086;SDS011;7642;48.478;8.952;2022-07-29T00:57:49;6.50;;;2.30;;
15086;SDS011;7642;48.478;8.952;2022-07-29T01:00:17;2.63;;;2.42;;
15086;SDS011;7642;48.478;8.952;2022-07-29T01:02:47;3.10;;;2.80;;
15086;SDS011;7642;48.478;8.952;2022-07-29T01:05:13;3.50;;;2.58;;
15086;SDS011;7642;48.478;8.952;2022-07-29T01:07:42;2.53;;;2.30;;
15086;SDS011;7642;48.478;8.952;2022-07-29T01:10:09;3.70;;;2.60;;
15086;SDS011;7642;48.478;8.952;2022-07-29T01:12:36;4.88;;;2.85;;
15086;SDS011;7642;48.478;8.952;2022-07-29T01:15:03;2.78;;;2.47;;
15086;SDS011;7642;48.478;8.952;2022-07-29T01:26:03;3.10;;;2.45;;
15086;SDS011;7642;48.478;8.952;2022-07-29T01:31:35;4.60;;;2.63;;
15086;SDS011;7642;48.478;8.952;2022-07-29T01:34:05;2.58;;;2.30;;
15086;SDS011;7642;48.478;8.952;2022-07-29T01:36:35;3.45;;;2.22;;
15086;SDS011;7642;48.478;8.952;2022-07-29T01:39:12;2.58;;;2.38;;
15086;SDS011;7642;48.478;8.952;2022-07-29T01:41:48;5.00;;;2.75;;
15086;SDS011;7642;48.478;8.952;2022-07-29T01:44:22;3.13;;;2.13;;
15086;SDS011;7642;48.478;8.952;2022-07-29T01:46:56;2.80;;;2.55;;
15086;SDS011;7642;48.478;8.952;2022-07-29T01:49:28;3.33;;;2.20;;
15086;SDS011;7642;48.478;8.952;2022-07-29T01:52:04;2.47;;;2.10;;
15086;SDS011;7642;48.478;8.952;2022-07-29T01:54:38;2.30;;;2.10;;
15086;SDS011;7642;48.478;8.952;2022-07-29T01:57:11;2.65;;;2.45;;
15086;SDS011;7642;48.478;8.952;2022-07-29T01:59:40;3.25;;;2.95;;
15086;SDS011;7642;48.478;8.952;2022-07-29T02:02:08;5.40;;;2.80;;
15086;SDS011;7642;48.478;8.952;2022-07-29T02:04:36;3.55;;;3.25;;
15086;SDS011;7642;48.478;8.952;2022-07-29T02:07:05;4.43;;;3.97;;
15086;SDS011;7642;48.478;8.952;2022-07-29T02:09:33;4.85;;;4.28;;
15086;SDS011;7642;48.478;8.952;2022-07-29T02:12:00;4.40;;;4.00;;
15086;SDS011;7642;48.478;8.952;2022-07-29T02:14:28;4.30;;;3.65;;
15086;SDS011;7642;48.478;8.952;2022-07-29T02:16:57;4.70;;;3.90;;
15086;SDS011;7642;48.478;8.952;2022-07-29T02:19:25;5.53;;;4.43;;
15086;SDS011;7642;48.478;8.952;2022-07-29T02:21:53;4.55;;;3.72;;
15086;SDS011;7642;48.478;8.952;2022-07-29T02:24:21;4.38;;;3.97;;
15086;SDS011;7642;48.478;8.952;2022-07-29T02:26:49;4.30;;;3.63;;
15086;SDS011;7642;48.478;8.952;2022-07-29T02:29:16;4.65;;;3.78;;
15086;SDS011;7642;48.478;8.952;2022-07-29T02:31:44;4.53;;;3.83;;
15086;SDS011;7642;48.478;8.952;2022-07-29T02:34:12;4.57;;;4.18;;
15086;SDS011;7642;48.478;8.952;2022-07-29T02:36:40;4.80;;;4.28;;
15086;SDS011;7642;48.478;8.952;2022-07-29T02:39:08;5.05;;;4.13;;
15086;SDS011;7642;48.478;8.952;2022-07-29T02:41:41;4.25;;;3.85;;
15086;SDS011;7642;48.478;8.952;2022-07-29T02:44:10;4.43;;;4.03;;
15086;SDS011;7642;48.478;8.952;2022-07-29T02:46:40;4.53;;;3.70;;
15086;SDS011;7642;48.478;8.952;2022-07-29T02:49:15;4.43;;;4.03;;
15086;SDS011;7642;48.478;8.952;2022-07-29T02:54:21;4.50;;;4.10;;
15086;SDS011;7642;48.478;8.952;2022-07-29T02:56:58;3.88;;;3.47;;
15086;SDS011;7642;48.478;8.952;2022-07-29T02:59:29;4.13;;;3.67;;
15086;SDS011;7642;48.478;8.952;2022-07-29T03:01:59;3.83;;;3.53;;
15086;SDS011;7642;48.478;8.952;2022-07-29T03:04:26;4.57;;;4.18;;
15086;SDS011;7642;48.478;8.952;2022-07-29T03:06:54;4.22;;;3.33;;
15086;SDS011;7642;48.478;8.952;2022-07-29T03:09:23;4.22;;;3.10;;
15086;SDS011;7642;48.478;8.952;2022-07-29T03:11:50;4.05;;;3.65;;
15086;SDS011;7642;48.478;8.952;2022-07-29T03:14:16;3.50;;;3.03;;
15086;SDS011;7642;48.478;8.952;2022-07-29T03:16:43;3.63;;;3.15;;
15086;SDS011;7642;48.478;8.952;2022-07-29T03:19:09;5.05;;;2.88;;
15086;SDS011;7642;48.478;8.952;2022-07-29T03:21:35;3.50;;;3.20;;
15086;SDS011;7642;48.478;8.952;2022-07-29T03:24:01;3.28;;;2.97;;
15086;SDS011;7642;48.478;8.952;2022-07-29T03:26:27;3.58;;;3.15;;
15086;SDS011;7642;48.478;8.952;2022-07-29T03:28:52;6.03;;;3.08;;
15086;SDS011;7642;48.478;8.952;2022-07-29T03:31:19;5.07;;;3.22;;
15086;SDS011;7642;48.478;8.952;2022-07-29T03:33:45;3.47;;;3.15;;
15086;SDS011;7642;48.478;8.952;2022-07-29T03:36:10;4.03;;;2.78;;
15086;SDS011;7642;48.478;8.952;2022-07-29T03:38:36;2.97;;;2.67;;
15086;SDS011;7642;48.478;8.952;2022-07-29T03:41:09;4.30;;;2.92;;
15086;SDS011;7642;48.478;8.952;2022-07-29T03:43:37;3.00;;;2.70;;
15086;SDS011;7642;48.478;8.952;2022-07-29T03:46:09;3.10;;;2.80;;
15086;SDS011;7642;48.478;8.952;2022-07-29T03:48:36;3.22;;;2.92;;
15086;SDS011;7642;48.478;8.952;2022-07-29T03:51:06;4.10;;;2.80;;
15086;SDS011;7642;48.478;8.952;2022-07-29T03:53:32;3.65;;;2.70;;
15086;SDS011;7642;48.478;8.952;2022-07-29T03:56:00;3.38;;;2.80;;
15086;SDS011;7642;48.478;8.952;2022-07-29T03:58:27;2.70;;;2.47;;
15086;SDS011;7642;48.478;8.952;2022-07-29T04:00:55;2.70;;;2.50;;
15086;SDS011;7642;48.478;8.952;2022-07-29T04:03:21;6.47;;;3.33;;
15086;SDS011;7642;48.478;8.952;2022-07-29T04:06:01;3.80;;;2.88;;
15086;SDS011;7642;48.478;8.952;2022-07-29T04:08:28;3.65;;;3.28;;
15086;SDS011;7642;48.478;8.952;2022-07-29T04:10:54;5.55;;;4.13;;
15086;SDS011;7642;48.478;8.952;2022-07-29T04:13:20;5.88;;;3.67;;
15086;SDS011;7642;48.478;8.952;2022-07-29T04:15:45;3.97;;;3.20;;
15086;SDS011;7642;48.478;8.952;2022-07-29T04:18:11;3.20;;;2.85;;
15086;SDS011;7642;48.478;8.952;2022-07-29T04:20:37;4.13;;;3.45;;
15086;SDS011;7642;48.478;8.952;2022-07-29T04:23:02;4.55;;;2.63;;
15086;SDS011;7642;48.478;8.952;2022-07-29T04:25:28;3.70;;;3.40;;
15086;SDS011;7642;48.478;8.952;2022-07-29T04:27:53;2.92;;;2.42;;
15086;SDS011;7642;48.478;8.952;2022-07-29T04:30:25;5.88;;;3.17;;
15086;SDS011;7642;48.478;8.952;2022-07-29T04:32:50;3.00;;;2.80;;
15086;SDS011;7642;48.478;8.952;2022-07-29T04:35:16;3.25;;;2.95;;
15086;SDS011;7642;48.478;8.952;2022-07-29T04:37:43;4.47;;;2.55;;
15086;SDS011;7642;48.478;8.952;2022-07-29T04:40:08;4.53;;;3.88;;
15086;SDS011;7642;48.478;8.952;2022-07-29T04:42:34;2.97;;;2.55;;
15086;SDS011;7642;48.478;8.952;2022-07-29T04:45:00;3.60;;;2.63;;
15086;SDS011;7642;48.478;8.952;2022-07-29T04:47:25;3.58;;;2.60;;
15086;SDS011;7642;48.478;8.952;2022-07-29T04:49:51;4.18;;;3.35;;
15086;SDS011;7642;48.478;8.952;2022-07-29T04:52:17;2.85;;;2.65;;
15086;SDS011;7642;48.478;8.952;2022-07-29T04:54:42;3.28;;;2.97;;
15086;SDS011;7642;48.478;8.952;2022-07-29T04:57:08;3.00;;;2.70;;
15086;SDS011;7642;48.478;8.952;2022-07-29T04:59:34;3.97;;;2.85;;
15086;SDS011;7642;48.478;8.952;2022-07-29T05:02:00;4.15;;;3.50;;
15086;SDS011;7642;48.478;8.952;2022-07-29T05:04:25;3.50;;;3.20;;
15086;SDS011;7642;48.478;8.952;2022-07-29T05:06:51;4.05;;;3.13;;
15086;SDS011;7642;48.478;8.952;2022-07-29T05:09:17;3.67;;;3.30;;
15086;SDS011;7642;48.478;8.952;2022-07-29T05:11:43;6.28;;;3.75;;
15086;SDS011;7642;48.478;8.952;2022-07-29T05:14:08;6.85;;;3.83;;
15086;SDS011;7642;48.478;8.952;2022-07-29T05:16:34;4.47;;;3.67;;
15086;SDS011;7642;48.478;8.952;2022-07-29T05:18:59;4.47;;;3.22;;
15086;SDS011;7642;48.478;8.952;2022-07-29T05:21:26;4.43;;;3.28;;
15086;SDS011;7642;48.478;8.952;2022-07-29T05:23:51;5.07;;;3.15;;
15086;SDS011;7642;48.478;8.952;2022-07-29T05:26:17;4.60;;;3.42;;
15086;SDS011;7642;48.478;8.952;2022-07-29T05:28:43;3.88;;;3.10;;
15086;SDS011;7642;48.478;8.952;2022-07-29T05:31:08;6.38;;;4.15;;
15086;SDS011;7642;48.478;8.952;2022-07-29T05:33:34;4.47;;;3.38;;
15086;SDS011;7642;48.478;8.952;2022-07-29T05:35:59;5.13;;;3.00;;
15086;SDS011;7642;48.478;8.952;2022-07-29T05:38:25;3.42;;;3.13;;
15086;SDS011;7642;48.478;8.952;2022-07-29T05:40:51;5.35;;;2.75;;
15086;SDS011;7642;48.478;8.952;2022-07-29T05:43:16;5.40;;;3.67;;
15086;SDS011;7642;48.478;8.952;2022-07-29T05:45:42;5.22;;;3.25;;
15086;SDS011;7642;48.478;8.952;2022-07-29T05:48:08;3.33;;;3.03;;
15086;SDS011;7642;48.478;8.952;2022-07-29T05:50:33;4.30;;;3.22;;
15086;SDS011;7642;48.478;8.952;2022-07-29T05:52:59;4.25;;;2.47;;
15086;SDS011;7642;48.478;8.952;2022-07-29T05:55:24;4.38;;;2.78;;
15086;SDS011;7642;48.478;8.952;2022-07-29T05:57:51;3.83;;;3.22;;
15086;SDS011;7642;48.478;8.952;2022-07-29T06:00:17;2.85;;;2.63;;
15086;SDS011;7642;48.478;8.952;2022-07-29T06:02:42;4.40;;;2.72;;
15086;SDS011;7642;48.478;8.952;2022-07-29T06:05:08;4.22;;;3.30;;
15086;SDS011;7642;48.478;8.952;2022-07-29T06:07:34;3.15;;;2.75;;
15086;SDS011;7642;48.478;8.952;2022-07-29T06:09:59;5.05;;;2.97;;
15086;SDS011;7642;48.478;8.952;2022-07-29T06:12:25;3.45;;;2.60;;
15086;SDS011;7642;48.478;8.952;2022-07-29T06:14:51;3.00;;;2.72;;
15086;SDS011;7642;48.478;8.952;2022-07-29T06:17:16;3.90;;;2.50;;
15086;SDS011;7642;48.478;8.952;2022-07-29T06:19:42;3.47;;;2.60;;
15086;SDS011;7642;48.478;8.952;2022-07-29T06:22:07;3.00;;;2.47;;
15086;SDS011;7642;48.478;8.952;2022-07-29T06:24:33;3.92;;;2.42;;
15086;SDS011;7642;48.478;8.952;2022-07-29T06:27:02;8.40;;;3.42;;
15086;SDS011;7642;48.478;8.952;2022-07-29T06:29:27;3.58;;;2.70;;
15086;SDS011;7642;48.478;8.952;2022-07-29T06:31:53;3.45;;;2.67;;
15086;SDS011;7642;48.478;8.952;2022-07-29T06:34:19;4.95;;;3.05;;
15086;SDS011;7642;48.478;8.952;2022-07-29T06:36:44;2.50;;;2.10;;
15086;SDS011;7642;48.478;8.952;2022-07-29T06:39:10;3.72;;;2.40;;
15086;SDS011;7642;48.478;8.952;2022-07-29T06:41:35;2.40;;;2.15;;
15086;SDS011;7642;48.478;8.952;2022-07-29T06:44:01;2.95;;;2.75;;
15086;SDS011;7642;48.478;8.952;2022-07-29T06:46:27;2.95;;;2.58;;
15086;SDS011;7642;48.478;8.952;2022-07-29T06:48:52;2.47;;;2.28;;
15086;SDS011;7642;48.478;8.952;2022-07-29T06:51:18;2.65;;;2.35;;
15086;SDS011;7642;48.478;8.952;2022-07-29T06:53:44;6.45;;;2.75;;
15086;SDS011;7642;48.478;8.952;2022-07-29T06:56:09;5.07;;;2.50;;
15086;SDS011;7642;48.478;8.952;2022-07-29T06:58:37;3.17;;;2.67;;
15086;SDS011;7642;48.478;8.952;2022-07-29T07:01:04;2.35;;;2.08;;
15086;SDS011;7642;48.478;8.952;2022-07-29T07:03:31;2.03;;;1.83;;
15086;SDS011;7642;48.478;8.952;2022-07-29T07:05:57;3.00;;;2.42;;
15086;SDS011;7642;48.478;8.952;2022-07-29T07:08:23;4.85;;;2.08;;
15086;SDS011;7642;48.478;8.952;2022-07-29T07:10:48;2.92;;;2.45;;
15086;SDS011;7642;48.478;8.952;2022-07-29T07:13:17;2.70;;;2.28;;
15086;SDS011;7642;48.478;8.952;2022-07-29T07:15:44;2.35;;;2.05;;
15086;SDS011;7642;48.478;8.952;2022-07-29T07:18:10;2.22;;;2.03;;
15086;SDS011;7642;48.478;8.952;2022-07-29T07:20:36;2.20;;;2.00;;
15086;SDS011;7642;48.478;8.952;2022-07-29T07:23:02;4.03;;;2.78;;
15086;SDS011;7642;48.478;8.952;2022-07-29T07:25:29;4.57;;;2.67;;
15086;SDS011;7642;48.478;8.952;2022-07-29T07:27:55;2.88;;;2.45;;
15086;SDS011;7642;48.478;8.952;2022-07-29T07:30:20;2.80;;;2.42;;
15086;SDS011;7642;48.478;8.952;2022-07-29T07:32:46;3.78;;;2.75;;
15086;SDS011;7642;48.478;8.952;2022-07-29T07:35:11;3.15;;;2.65;;
15086;SDS011;7642;48.478;8.952;2022-07-29T07:37:38;3.75;;;2.53;;
15086;SDS011;7642;48.478;8.952;2022-07-29T07:40:06;2.58;;;2.38;;
15086;SDS011;7642;48.478;8.952;2022-07-29T07:42:32;3.95;;;2.65;;
15086;SDS011;7642;48.478;8.952;2022-07-29T07:44:58;2.53;;;2.33;;
15086;SDS011;7642;48.478;8.952;2022-07-29T07:47:24;4.57;;;2.30;;
15086;SDS011;7642;48.478;8.952;2022-07-29T07:49:51;4.28;;;2.40;;
15086;SDS011;7642;48.478;8.952;2022-07-29T07:52:18;3.05;;;2.75;;
15086;SDS011;7642;48.478;8.952;2022-07-29T07:54:45;3.95;;;2.90;;
15086;SDS011;7642;48.478;8.952;2022-07-29T07:57:14;2.55;;;2.35;;
15086;SDS011;7642;48.478;8.952;2022-07-29T07:59:40;5.57;;;1.98;;
15086;SDS011;7642;48.478;8.952;2022-07-29T08:02:06;4.90;;;2.88;;
15086;SDS011;7642;48.478;8.952;2022-07-29T08:04:34;3.45;;;2.75;;
15086;SDS011;7642;48.478;8.952;2022-07-29T08:07:00;2.78;;;2.40;;
15086;SDS011;7642;48.478;8.952;2022-07-29T08:09:27;2.17;;;1.98;;
15086;SDS011;7642;48.478;8.952;2022-07-29T08:11:54;3.70;;;2.17;;
15086;SDS011;7642;48.478;8.952;2022-07-29T08:14:20;2.95;;;2.38;;
15086;SDS011;7642;48.478;8.952;2022-07-29T08:16:46;5.47;;;2.65;;
15086;SDS011;7642;48.478;8.952;2022-07-29T08:19:12;3.63;;;2.63;;
15086;SDS011;7642;48.478;8.952;2022-07-29T08:21:37;4.72;;;2.47;;
15086;SDS011;7642;48.478;8.952;2022-07-29T08:24:04;2.47;;;2.28;;
15086;SDS011;7642;48.478;8.952;2022-07-29T08:26:48;4.88;;;2.25;;
15086;SDS011;7642;48.478;8.952;2022-07-29T08:29:14;2.38;;;2.17;;
15086;SDS011;7642;48.478;8.952;2022-07-29T08:31:41;2.58;;;1.98;;
15086;SDS011;7642;48.478;8.952;2022-07-29T08:34:06;2.33;;;1.98;;
15086;SDS011;7642;48.478;8.952;2022-07-29T08:36:33;3.72;;;1.92;;
15086;SDS011;7642;48.478;8.952;2022-07-29T08:38:59;5.55;;;2.47;;
15086;SDS011;7642;48.478;8.952;2022-07-29T08:41:26;3.33;;;2.53;;
15086;SDS011;7642;48.478;8.952;2022-07-29T08:43:52;3.83;;;2.55;;
15086;SDS011;7642;48.478;8.952;2022-07-29T08:46:18;2.22;;;1.83;;
15086;SDS011;7642;48.478;8.952;2022-07-29T08:48:45;4.00;;;2.50;;
15086;SDS011;7642;48.478;8.952;2022-07-29T08:51:15;3.65;;;2.47;;
15086;SDS011;7642;48.478;8.952;2022-07-29T08:53:43;3.25;;;2.17;;
15086;SDS011;7642;48.478;8.952;2022-07-29T08:56:13;5.97;;;2.40;;
15086;SDS011;7642;48.478;8.952;2022-07-29T08:58:41;2.90;;;2.53;;
15086;SDS011;7642;48.478;8.952;2022-07-29T09:01:11;6.15;;;2.35;;
15086;SDS011;7642;48.478;8.952;2022-07-29T09:03:41;3.25;;;2.22;;
15086;SDS011;7642;48.478;8.952;2022-07-29T09:06:11;2.38;;;2.17;;
15086;SDS011;7642;48.478;8.952;2022-07-29T09:08:39;3.10;;;2.28;;
15086;SDS011;7642;48.478;8.952;2022-07-29T09:11:05;3.95;;;2.70;;
15086;SDS011;7642;48.478;8.952;2022-07-29T09:13:32;3.70;;;2.45;;
15086;SDS011;7642;48.478;8.952;2022-07-29T09:15:59;7.22;;;2.58;;
15086;SDS011;7642;48.478;8.952;2022-07-29T09:18:43;3.35;;;2.47;;
15086;SDS011;7642;48.478;8.952;2022-07-29T09:21:11;2.70;;;2.50;;
15086;SDS011;7642;48.478;8.952;2022-07-29T09:26:37;2.67;;;2.33;;
15086;SDS011;7642;48.478;8.952;2022-07-29T09:29:07;5.53;;;3.05;;
15086;SDS011;7642;48.478;8.952;2022-07-29T09:31:42;3.17;;;2.50;;
15086;SDS011;7642;48.478;8.952;2022-07-29T09:34:11;5.00;;;2.58;;
15086;SDS011;7642;48.478;8.952;2022-07-29T09:39:08;3.25;;;2.42;;
15086;SDS011;7642;48.478;8.952;2022-07-29T09:44:48;3.50;;;2.45;;
15086;SDS011;7642;48.478;8.952;2022-07-29T09:47:16;2.60;;;2.17;;
15086;SDS011;7642;48.478;8.952;2022-07-29T09:49:58;2.90;;;2.10;;
15086;SDS011;7642;48.478;8.952;2022-07-29T09:52:28;2.58;;;2.22;;
15086;SDS011;7642;48.478;8.952;2022-07-29T09:55:07;2.53;;;2.33;;
15086;SDS011;7642;48.478;8.952;2022-07-29T09:57:34;2.25;;;2.08;;
15086;SDS011;7642;48.478;8.952;2022-07-29T10:00:08;3.65;;;2.67;;
15086;SDS011;7642;48.478;8.952;2022-07-29T10:02:35;2.58;;;2.35;;
15086;SDS011;7642;48.478;8.952;2022-07-29T10:05:03;2.80;;;2.30;;
15086;SDS011;7642;48.478;8.952;2022-07-29T10:07:42;4.72;;;2.38;;
15086;SDS011;7642;48.478;8.952;2022-07-29T10:10:10;3.60;;;1.85;;
15086;SDS011;7642;48.478;8.952;2022-07-29T10:12:48;5.03;;;2.30;;
15086;SDS011;7642;48.478;8.952;2022-07-29T10:15:15;2.85;;;1.70;;
15086;SDS011;7642;48.478;8.952;2022-07-29T10:17:41;3.58;;;2.20;;
15086;SDS011;7642;48.478;8.952;2022-07-29T10:20:08;2.17;;;1.98;;
15086;SDS011;7642;48.478;8.952;2022-07-29T10:22:34;1.95;;;1.70;;
15086;SDS011;7642;48.478;8.952;2022-07-29T10:24:59;3.17;;;1.70;;
15086;SDS011;7642;48.478;8.952;2022-07-29T10:27:25;2.13;;;1.92;;
15086;SDS011;7642;48.478;8.952;2022-07-29T10:29:51;1.92;;;1.40;;
15086;SDS011;7642;48.478;8.952;2022-07-29T10:32:24;2.38;;;1.80;;
15086;SDS011;7642;48.478;8.952;2022-07-29T10:43:27;2.60;;;2.08;;
15086;SDS011;7642;48.478;8.952;2022-07-29T10:45:56;4.30;;;2.17;;
15086;SDS011;7642;48.478;8.952;2022-07-29T10:48:24;4.43;;;1.90;;
15086;SDS011;7642;48.478;8.952;2022-07-29T10:50:57;5.35;;;1.55;;
15086;SDS011;7642;48.478;8.952;2022-07-29T10:56:25;4.63;;;2.15;;
15086;SDS011;7642;48.478;8.952;2022-07-29T11:01:43;2.85;;;1.70;;
15086;SDS011;7642;48.478;8.952;2022-07-29T11:04:09;2.58;;;1.75;;
15086;SDS011;7642;48.478;8.952;2022-07-29T11:09:25;2.10;;;1.85;;
15086;SDS011;7642;48.478;8.952;2022-07-29T11:11:51;2.15;;;1.95;;
15086;SDS011;7642;48.478;8.952;2022-07-29T11:14:16;2.53;;;1.90;;
15086;SDS011;7642;48.478;8.952;2022-07-29T11:16:59;2.55;;;2.00;;
15086;SDS011;7642;48.478;8.952;2022-07-29T11:19:27;2.38;;;2.17;;
15086;SDS011;7642;48.478;8.952;2022-07-29T11:21:53;2.70;;;2.50;;
15086;SDS011;7642;48.478;8.952;2022-07-29T11:32:18;2.50;;;2.30;;
15086;SDS011;7642;48.478;8.952;2022-07-29T11:34:45;5.15;;;2.15;;
15086;SDS011;7642;48.478;8.952;2022-07-29T11:44:58;4.40;;;1.98;;
15086;SDS011;7642;48.478;8.952;2022-07-29T11:47:26;1.80;;;1.70;;
15086;SDS011;7642;48.478;8.952;2022-07-29T11:49:56;4.00;;;2.25;;
15086;SDS011;7642;48.478;8.952;2022-07-29T11:52:22;2.72;;;1.70;;
15086;SDS011;7642;48.478;8.952;2022-07-29T11:54:48;2.13;;;1.63;;
15086;SDS011;7642;48.478;8.952;2022-07-29T11:57:16;2.75;;;1.95;;
15086;SDS011;7642;48.478;8.952;2022-07-29T11:59:43;1.50;;;1.40;;
15086;SDS011;7642;48.478;8.952;2022-07-29T12:02:12;3.00;;;1.60;;
15086;SDS011;7642;48.478;8.952;2022-07-29T12:04:55;2.53;;;2.33;;
15086;SDS011;7642;48.478;8.952;2022-07-29T12:07:28;4.25;;;1.98;;
15086;SDS011;7642;48.478;8.952;2022-07-29T12:09:54;4.00;;;1.90;;
15086;SDS011;7642;48.478;8.952;2022-07-29T12:12:20;2.47;;;1.95;;
15086;SDS011;7642;48.478;8.952;2022-07-29T12:14:46;1.92;;;1.80;;
15086;SDS011;7642;48.478;8.952;2022-07-29T12:19:53;2.22;;;1.98;;
15086;SDS011;7642;48.478;8.952;2022-07-29T12:22:35;2.03;;;1.88;;
15086;SDS011;7642;48.478;8.952;2022-07-29T12:25:04;1.70;;;1.58;;
15086;SDS011;7642;48.478;8.952;2022-07-29T12:27:43;3.90;;;2.10;;
15086;SDS011;7642;48.478;8.952;2022-07-29T12:30:10;2.63;;;2.03;;
15086;SDS011;7642;48.478;8.952;2022-07-29T12:35:09;2.33;;;2.13;;
15086;SDS011;7642;48.478;8.952;2022-07-29T12:37:45;2.40;;;1.83;;
15086;SDS011;7642;48.478;8.952;2022-07-29T12:40:13;3.72;;;1.98;;
15086;SDS011;7642;48.478;8.952;2022-07-29T12:42:41;3.78;;;2.20;;
15086;SDS011;7642;48.478;8.952;2022-07-29T12:45:29;3.38;;;2.10;;
15086;SDS011;7642;48.478;8.952;2022-07-29T12:47:55;3.08;;;2.10;;
15086;SDS011;7642;48.478;8.952;2022-07-29T12:50:21;4.65;;;2.60;;
15086;SDS011;7642;48.478;8.952;2022-07-29T12:52:47;4.68;;;2.65;;
15086;SDS011;7642;48.478;8.952;2022-07-29T12:55:12;2.15;;;1.88;;
15086;SDS011;7642;48.478;8.952;2022-07-29T12:57:45;2.65;;;1.92;;
15086;SDS011;7642;48.478;8.952;2022-07-29T13:00:12;2.60;;;2.40;;
15086;SDS011;7642;48.478;8.952;2022-07-29T13:02:40;3.38;;;2.10;;
15086;SDS011;7642;48.478;8.952;2022-07-29T13:05:09;2.95;;;1.80;;
15086;SDS011;7642;48.478;8.952;2022-07-29T13:07:37;2.15;;;1.38;;
15086;SDS011;7642;48.478;8.952;2022-07-29T13:10:21;2.83;;;1.77;;
15086;SDS011;7642;48.478;8.952;2022-07-29T13:15:40;1.77;;;1.65;;
15086;SDS011;7642;48.478;8.952;2022-07-29T13:21:12;2.53;;;1.90;;
15086;SDS011;7642;48.478;8.952;2022-07-29T13:23:39;3.25;;;2.28;;
15086;SDS011;7642;48.478;8.952;2022-07-29T13:26:06;2.22;;;1.90;;
15086;SDS011;7642;48.478;8.952;2022-07-29T13:28:44;2.33;;;2.13;;
15086;SDS011;7642;48.478;8.952;2022-07-29T13:31:10;4.50;;;2.17;;
15086;SDS011;7642;48.478;8.952;2022-07-29T13:33:35;4.55;;;2.00;;
15086;SDS011;7642;48.478;8.952;2022-07-29T13:36:01;2.65;;;1.90;;
15086;SDS011;7642;48.478;8.952;2022-07-29T13:38:26;3.15;;;1.80;;
15086;SDS011;7642;48.478;8.952;2022-07-29T13:40:52;2.20;;;2.00;;
15086;SDS011;7642;48.478;8.952;2022-07-29T13:43:18;2.40;;;1.80;;
15086;SDS011;7642;48.478;8.952;2022-07-29T13:45:43;3.65;;;2.50;;
15086;SDS011;7642;48.478;8.952;2022-07-29T13:48:09;2.72;;;1.90;;
15086;SDS011;7642;48.478;8.952;2022-07-29T13:50:34;6.72;;;2.08;;
15086;SDS011;7642;48.478;8.952;2022-07-29T13:53:00;3.80;;;2.10;;
15086;SDS011;7642;48.478;8.952;2022-07-29T13:55:25;2.30;;;1.88;;
15086;SDS011;7642;48.478;8.952;2022-07-29T13:57:51;4.35;;;2.28;;
15086;SDS011;7642;48.478;8.952;2022-07-29T14:00:17;2.40;;;2.20;;
15086;SDS011;7642;48.478;8.952;2022-07-29T14:02:43;2.45;;;1.80;;
15086;SDS011;7642;48.478;8.952;2022-07-29T14:05:10;2.33;;;1.98;;
15086;SDS011;7642;48.478;8.952;2022-07-29T14:07:39;2.13;;;1.67;;
15086;SDS011;7642;48.478;8.952;2022-07-29T14:10:05;4.70;;;2.17;;
15086;SDS011;7642;48.478;8.952;2022-07-29T14:12:31;2.38;;;2.17;;
15086;SDS011;7642;48.478;8.952;2022-07-29T14:14:56;3.50;;;1.85;;
15086;SDS011;7642;48.478;8.952;2022-07-29T14:17:22;2.72;;;2.10;;
15086;SDS011;7642;48.478;8.952;2022-07-29T14:19:48;2.10;;;1.90;;
15086;SDS011;7642;48.478;8.952;2022-07-29T14:22:14;2.58;;;2.38;;
15086;SDS011;7642;48.478;8.952;2022-07-29T14:24:39;4.63;;;2.05;;
15086;SDS011;7642;48.478;8.952;2022-07-29T14:27:06;1.95;;;1.83;;
15086;SDS011;7642;48.478;8.952;2022-07-29T14:29:32;2.47;;;2.28;;
15086;SDS011;7642;48.478;8.952;2022-07-29T14:31:58;2.92;;;2.20;;
15086;SDS011;7642;48.478;8.952;2022-07-29T14:34:24;2.42;;;2.03;;
15086;SDS011;7642;48.478;8.952;2022-07-29T14:36:50;3.03;;;2.15;;
15086;SDS011;7642;48.478;8.952;2022-07-29T14:39:16;3.38;;;2.13;;
15086;SDS011;7642;48.478;8.952;2022-07-29T14:41:42;4.45;;;2.28;;
15086;SDS011;7642;48.478;8.952;2022-07-29T14:44:08;2.33;;;1.92;;
15086;SDS011;7642;48.478;8.952;2022-07-29T14:46:34;2.58;;;2.20;;
15086;SDS011;7642;48.478;8.952;2022-07-29T14:49:00;2.38;;;2.13;;
15086;SDS011;7642;48.478;8.952;2022-07-29T14:51:25;2.45;;;2.08;;
15086;SDS011;7642;48.478;8.952;2022-07-29T14:53:51;2.30;;;2.10;;
15086;SDS011;7642;48.478;8.952;2022-07-29T14:56:16;3.63;;;2.47;;
15086;SDS011;7642;48.478;8.952;2022-07-29T14:58:42;2.50;;;1.85;;
15086;SDS011;7642;48.478;8.952;2022-07-29T15:01:08;2.63;;;1.98;;
15086;SDS011;7642;48.478;8.952;2022-07-29T15:03:33;4.30;;;2.00;;
15086;SDS011;7642;48.478;8.952;2022-07-29T15:05:59;2.70;;;2.28;;
15086;SDS011;7642;48.478;8.952;2022-07-29T15:08:24;3.42;;;2.05;;
15086;SDS011;7642;48.478;8.952;2022-07-29T15:10:52;3.25;;;2.13;;
15086;SDS011;7642;48.478;8.952;2022-07-29T15:13:18;2.92;;;2.22;;
15086;SDS011;7642;48.478;8.952;2022-07-29T15:15:44;3.45;;;2.10;;
15086;SDS011;7642;48.478;8.952;2022-07-29T15:18:10;2.67;;;2.03;;
15086;SDS011;7642;48.478;8.952;2022-07-29T15:20:36;2.45;;;1.70;;
15086;SDS011;7642;48.478;8.952;2022-07-29T15:23:01;2.60;;;2.17;;
15086;SDS011;7642;48.478;8.952;2022-07-29T15:25:27;3.45;;;2.15;;
15086;SDS011;7642;48.478;8.952;2022-07-29T15:27:53;3.50;;;2.17;;
15086;SDS011;7642;48.478;8.952;2022-07-29T15:30:18;3.50;;;1.88;;
15086;SDS011;7642;48.478;8.952;2022-07-29T15:32:44;4.05;;;2.33;;
15086;SDS011;7642;48.478;8.952;2022-07-29T15:35:09;2.30;;;2.10;;
15086;SDS011;7642;48.478;8.952;2022-07-29T15:37:36;2.17;;;1.80;;
15086;SDS011;7642;48.478;8.952;2022-07-29T15:40:02;2.55;;;2.20;;
15086;SDS011;7642;48.478;8.952;2022-07-29T15:42:29;3.75;;;2.47;;
15086;SDS011;7642;48.478;8.952;2022-07-29T15:44:54;2.50;;;1.85;;
15086;SDS011;7642;48.478;8.952;2022-07-29T15:47:20;1.95;;;1.85;;
15086;SDS011;7642;48.478;8.952;2022-07-29T15:49:46;1.98;;;1.70;;
15086;SDS011;7642;48.478;8.952;2022-07-29T15:52:12;2.35;;;1.80;;
15086;SDS011;7642;48.478;8.952;2022-07-29T15:54:38;2.17;;;1.88;;
15086;SDS011;7642;48.478;8.952;2022-07-29T15:57:05;5.18;;;2.03;;
15086;SDS011;7642;48.478;8.952;2022-07-29T15:59:31;1.80;;;1.70;;
15086;SDS011;7642;48.478;8.952;2022-07-29T16:01:58;2.65;;;1.77;;
15086;SDS011;7642;48.478;8.952;2022-07-29T16:04:24;2.22;;;1.77;;
15086;SDS011;7642;48.478;8.952;2022-07-29T16:06:51;2.33;;;1.88;;
15086;SDS011;7642;48.478;8.952;2022-07-29T16:09:16;2.20;;;2.00;;